Weather at Reeroe Airport [CLOSED]

Public forecast

Using degrees Celsius for public forecast. Weather courtesy of forecast.io.

Closest aviation weather report (METAR) to Reeroe Airport

Report is more than 6 hours old.

Closest report is Kerry Airport, 30.1 nm (55.8 km) ENE. Retrieved 2020/09/19 19:00 UTC (12 hours ago):

EIKY 191900Z 05003KT 020V080 9999 BKN034 15/12 Q1020

Closest aviation forecast (TAF) to Reeroe Airport

Closest forecast is Cork Airport, 64.8 nm (120.0 km) E. Retrieved 2020/09/20 06:09 UTC (47 minutes ago):

TAF TAF EICK 200500Z 2006/2106 35009KT 9999 FEW025 BECMG 2010/2012 11010KT BECMG 2014/2016 VRB03KT